Pudoz, Russia
Current Conditions -  °F | °C
As of 4:00 PM on Friday 19 Dec 2014 (Local Time) from ULPB Reporting Station
Overcast Overcast  
Wind Chill: 34°   Ceiling: 1300
Heat Index: 34°   Visibility: 6mi
Dew Point: 30°   Wind: 2mph
Humidity: 87%   Direction: NA
Pressure: 29.23"   Gusts: NA
Location:  61.8°N, 36.52°E
Report Text: ULPB 191300Z VRB01MPS 9999 BKN013 OVC070 01/M01 Q0990 TEMPO2000 SN BKN006 RMK QFE739/0985 SC040
Loading
Personal Weather Stations






























Interactive Weather Map New forecast layout! Learn more

10-Day Weather Forecast

Advertisements
Track Severe Weather on mobile